Time,TemperatureF,DewpointF,PressureIn,WindDirection,WindDirectionDegrees,WindSpeedMPH,WindSpeedGustMPH,Humidity,HourlyPrecipIn,Conditions,Clouds,dailyrainin,SolarRadiationWatts/m^2,SoftwareType,DateUTC
2013-05-25 00:02:00,50.0,38.0,-100.00,North,351,2.0,12.0,63,0.00,,,0.00,0.000000,,2013-05-25 04:02:00,
2013-05-25 00:33:00,46.0,40.0,-100.00,NW,321,2.0,5.0,79,0.00,,,0.00,0.000000,,2013-05-25 04:33:00,
2013-05-25 00:43:00,46.0,40.0,-100.00,NW,321,2.0,5.0,79,0.00,,,0.00,0.000000,,2013-05-25 04:43:00,
2013-05-25 00:53:00,46.0,40.0,-100.00,NW,321,2.0,5.0,79,0.00,,,0.00,0.000000,,2013-05-25 04:53:00,
2013-05-25 01:02:00,46.0,40.0,-100.00,NW,321,2.0,5.0,79,0.00,,,0.00,0.000000,,2013-05-25 05:02:00,
2013-05-25 01:32:00,48.0,37.0,-100.00,North,355,2.0,6.0,65,0.00,,,0.00,0.000000,,2013-05-25 05:32:00,
2013-05-25 01:43:00,48.0,37.0,-100.00,North,355,2.0,6.0,65,0.00,,,0.00,0.000000,,2013-05-25 05:43:00,
2013-05-25 01:52:00,48.0,37.0,-100.00,North,355,2.0,6.0,65,0.00,,,0.00,0.000000,,2013-05-25 05:52:00,
2013-05-25 02:02:00,48.0,37.0,-100.00,North,355,2.0,6.0,65,0.00,,,0.00,0.000000,,2013-05-25 06:02:00,
2013-05-25 02:32:00,44.0,38.0,-100.00,NE,50,1.0,5.0,80,0.00,,,0.00,0.000000,,2013-05-25 06:32:00,
2013-05-25 02:42:00,44.0,38.0,-100.00,NE,50,1.0,5.0,80,0.00,,,0.00,0.000000,,2013-05-25 06:42:00,
2013-05-25 02:52:00,44.0,38.0,-100.00,NE,50,1.0,5.0,80,0.00,,,0.00,0.000000,,2013-05-25 06:52:00,
2013-05-25 03:01:00,44.0,38.0,-100.00,NE,50,1.0,5.0,80,0.00,,,0.00,0.000000,,2013-05-25 07:01:00,
2013-05-25 03:32:00,41.0,38.0,-100.00,NE,37,1.0,5.0,90,0.00,,,0.00,0.000000,,2013-05-25 07:32:00,
2013-05-25 03:42:00,41.0,38.0,-100.00,NE,37,1.0,5.0,90,0.00,,,0.00,0.000000,,2013-05-25 07:42:00,
2013-05-25 03:52:00,41.0,38.0,-100.00,NE,37,1.0,5.0,90,0.00,,,0.00,0.000000,,2013-05-25 07:52:00,
2013-05-25 04:02:00,41.0,38.0,-100.00,NE,37,1.0,5.0,90,0.00,,,0.00,0.000000,,2013-05-25 08:02:00,
2013-05-25 04:32:00,40.0,38.0,-100.00,NE,48,0.0,3.0,94,0.00,,,0.00,0.000000,,2013-05-25 08:32:00,
2013-05-25 04:42:00,40.0,38.0,-100.00,NE,48,0.0,3.0,94,0.00,,,0.00,0.000000,,2013-05-25 08:42:00,
2013-05-25 04:52:00,40.0,38.0,-100.00,NE,48,0.0,3.0,94,0.00,,,0.00,0.000000,,2013-05-25 08:52:00,
2013-05-25 05:02:00,40.0,38.0,-100.00,NE,48,0.0,3.0,94,0.00,,,0.00,0.000000,,2013-05-25 09:02:00,
2013-05-25 05:33:00,39.0,38.0,-100.00,NNW,334,0.0,0.0,95,0.00,,,0.00,0.000000,,2013-05-25 09:33:00,
2013-05-25 05:43:00,39.0,38.0,-100.00,NNW,334,0.0,0.0,95,0.00,,,0.00,0.000000,,2013-05-25 09:43:00,
2013-05-25 05:53:00,39.0,38.0,-100.00,NNW,334,0.0,0.0,95,0.00,,,0.00,0.000000,,2013-05-25 09:53:00,
2013-05-25 06:03:00,39.0,38.0,-100.00,NNW,334,0.0,0.0,95,0.00,,,0.00,0.000000,,2013-05-25 10:03:00,
2013-05-25 06:33:00,38.0,37.0,-100.00,North,6,2.0,3.0,96,0.00,,,0.00,0.000000,,2013-05-25 10:33:00,
2013-05-25 06:42:00,38.0,37.0,-100.00,North,6,2.0,3.0,96,0.00,,,0.00,0.000000,,2013-05-25 10:42:00,
2013-05-25 06:52:00,38.0,37.0,-100.00,North,6,2.0,3.0,96,0.00,,,0.00,0.000000,,2013-05-25 10:52:00,
2013-05-25 07:03:00,38.0,37.0,-100.00,North,6,2.0,3.0,96,0.00,,,0.00,0.000000,,2013-05-25 11:03:00,
2013-05-25 07:32:00,38.0,37.0,-100.00,NNE,32,1.0,4.0,96,0.00,,,0.00,9.000000,,2013-05-25 11:32:00,
2013-05-25 07:42:00,38.0,37.0,-100.00,NNE,32,1.0,4.0,96,0.00,,,0.00,9.000000,,2013-05-25 11:42:00,
2013-05-25 07:52:00,38.0,37.0,-100.00,NNE,32,1.0,4.0,96,0.00,,,0.00,9.000000,,2013-05-25 11:52:00,
2013-05-25 08:01:00,38.0,37.0,-100.00,NNE,32,1.0,4.0,96,0.00,,,0.00,9.000000,,2013-05-25 12:01:00,
2013-05-25 08:32:00,42.0,41.0,-100.00,NNE,22,0.0,1.0,96,0.00,,,0.00,81.000000,,2013-05-25 12:32:00,
2013-05-25 08:42:00,42.0,41.0,-100.00,NNE,22,0.0,1.0,96,0.00,,,0.00,81.000000,,2013-05-25 12:42:00,
2013-05-25 08:52:00,42.0,41.0,-100.00,NNE,22,0.0,1.0,96,0.00,,,0.00,81.000000,,2013-05-25 12:52:00,
2013-05-25 09:02:00,42.0,41.0,-100.00,NNE,22,0.0,1.0,96,0.00,,,0.00,81.000000,,2013-05-25 13:02:00,
2013-05-25 09:32:00,54.0,45.0,-100.00,ESE,105,0.0,2.0,72,0.00,,,0.00,364.000000,,2013-05-25 13:32:00,
2013-05-25 09:42:00,54.0,45.0,-100.00,ESE,105,0.0,2.0,72,0.00,,,0.00,364.000000,,2013-05-25 13:42:00,
2013-05-25 09:52:00,54.0,45.0,-100.00,ESE,105,0.0,2.0,72,0.00,,,0.00,364.000000,,2013-05-25 13:52:00,
2013-05-25 10:02:00,54.0,45.0,-100.00,ESE,105,0.0,2.0,72,0.00,,,0.00,364.000000,,2013-05-25 14:02:00,
2013-05-25 10:32:00,59.0,46.0,-100.00,SSW,209,4.0,6.0,62,0.00,,,0.00,621.000000,,2013-05-25 14:32:00,
2013-05-25 10:42:00,59.0,46.0,-100.00,SSW,209,4.0,6.0,62,0.00,,,0.00,621.000000,,2013-05-25 14:42:00,
2013-05-25 10:52:00,59.0,46.0,-100.00,SSW,209,4.0,6.0,62,0.00,,,0.00,621.000000,,2013-05-25 14:52:00,
2013-05-25 11:01:00,59.0,46.0,-100.00,SSW,209,4.0,6.0,62,0.00,,,0.00,621.000000,,2013-05-25 15:01:00,
2013-05-25 11:33:00,66.0,34.0,-100.00,SSE,147,4.0,7.0,30,0.00,,,0.00,838.000000,,2013-05-25 15:33:00,
2013-05-25 11:43:00,66.0,34.0,-100.00,SSE,147,4.0,7.0,30,0.00,,,0.00,838.000000,,2013-05-25 15:43:00,
2013-05-25 11:53:00,66.0,34.0,-100.00,SSE,147,4.0,7.0,30,0.00,,,0.00,838.000000,,2013-05-25 15:53:00,
2013-05-25 12:03:00,66.0,34.0,-100.00,SSE,147,4.0,7.0,30,0.00,,,0.00,838.000000,,2013-05-25 16:03:00,
2013-05-25 12:33:00,69.0,34.0,-100.00,SSE,152,6.0,10.0,27,0.00,,,0.00,976.000000,,2013-05-25 16:33:00,
2013-05-25 12:42:00,69.0,34.0,-100.00,SSE,152,6.0,10.0,27,0.00,,,0.00,976.000000,,2013-05-25 16:42:00,
2013-05-25 12:52:00,69.0,34.0,-100.00,SSE,152,6.0,10.0,27,0.00,,,0.00,976.000000,,2013-05-25 16:52:00,
2013-05-25 13:03:00,69.0,34.0,-100.00,SSE,152,6.0,10.0,27,0.00,,,0.00,976.000000,,2013-05-25 17:03:00,
2013-05-25 13:33:00,71.0,23.0,-100.00,SSW,192,5.0,11.0,16,0.00,,,0.00,1068.000000,,2013-05-25 17:33:00,
2013-05-25 13:42:00,71.0,23.0,-100.00,SSW,192,5.0,11.0,16,0.00,,,0.00,1068.000000,,2013-05-25 17:42:00,
2013-05-25 13:52:00,71.0,23.0,-100.00,SSW,192,5.0,11.0,16,0.00,,,0.00,1068.000000,,2013-05-25 17:52:00,
2013-05-25 14:02:00,71.0,23.0,-100.00,SSW,192,5.0,11.0,16,0.00,,,0.00,1068.000000,,2013-05-25 18:02:00,
2013-05-25 14:32:00,73.0,28.0,-100.00,SSW,200,6.0,11.0,19,0.00,,,0.00,1104.000000,,2013-05-25 18:32:00,
2013-05-25 14:42:00,73.0,28.0,-100.00,SSW,200,6.0,11.0,19,0.00,,,0.00,1104.000000,,2013-05-25 18:42:00,
2013-05-25 14:52:00,73.0,28.0,-100.00,SSW,200,6.0,11.0,19,0.00,,,0.00,1104.000000,,2013-05-25 18:52:00,
2013-05-25 15:02:00,73.0,28.0,-100.00,SSW,200,6.0,11.0,19,0.00,,,0.00,1104.000000,,2013-05-25 19:02:00,
2013-05-25 15:32:00,74.0,28.0,-100.00,WSW,238,5.0,11.0,18,0.00,,,0.00,1057.000000,,2013-05-25 19:32:00,
2013-05-25 15:42:00,74.0,28.0,-100.00,WSW,238,5.0,11.0,18,0.00,,,0.00,1057.000000,,2013-05-25 19:42:00,
2013-05-25 15:52:00,74.0,28.0,-100.00,WSW,238,5.0,11.0,18,0.00,,,0.00,1057.000000,,2013-05-25 19:52:00,
2013-05-25 16:02:00,74.0,28.0,-100.00,WSW,238,5.0,11.0,18,0.00,,,0.00,1057.000000,,2013-05-25 20:02:00,
2013-05-25 16:32:00,74.0,32.0,-100.00,WSW,241,6.0,13.0,21,0.00,,,0.00,266.000000,,2013-05-25 20:32:00,
2013-05-25 16:42:00,74.0,32.0,-100.00,WSW,241,6.0,13.0,21,0.00,,,0.00,266.000000,,2013-05-25 20:42:00,
2013-05-25 16:52:00,74.0,32.0,-100.00,WSW,241,6.0,13.0,21,0.00,,,0.00,266.000000,,2013-05-25 20:52:00,
2013-05-25 17:02:00,74.0,32.0,-100.00,WSW,241,6.0,13.0,21,0.00,,,0.00,266.000000,,2013-05-25 21:02:00,
2013-05-25 17:33:00,73.0,37.0,-100.00,West,271,6.0,17.0,27,0.00,,,0.00,167.000000,,2013-05-25 21:33:00,
2013-05-25 17:43:00,73.0,37.0,-100.00,West,271,6.0,17.0,27,0.00,,,0.00,167.000000,,2013-05-25 21:43:00,
2013-05-25 17:53:00,73.0,37.0,-100.00,West,271,6.0,17.0,27,0.00,,,0.00,167.000000,,2013-05-25 21:53:00,
2013-05-25 18:03:00,73.0,37.0,-100.00,West,271,6.0,17.0,27,0.00,,,0.00,167.000000,,2013-05-25 22:03:00,
2013-05-25 18:33:00,72.0,30.0,-100.00,West,274,8.0,15.0,21,0.00,,,0.00,556.000000,,2013-05-25 22:33:00,
2013-05-25 18:42:00,72.0,30.0,-100.00,West,274,8.0,15.0,21,0.00,,,0.00,556.000000,,2013-05-25 22:42:00,
2013-05-25 18:52:00,72.0,30.0,-100.00,West,274,8.0,15.0,21,0.00,,,0.00,556.000000,,2013-05-25 22:52:00,
2013-05-25 19:02:00,72.0,30.0,-100.00,West,274,8.0,15.0,21,0.00,,,0.00,556.000000,,2013-05-25 23:02:00,
2013-05-25 19:32:00,71.0,35.0,-100.00,West,275,5.0,12.0,27,0.00,,,0.00,181.000000,,2013-05-25 23:32:00,
2013-05-25 19:42:00,71.0,35.0,-100.00,West,275,5.0,12.0,27,0.00,,,0.00,181.000000,,2013-05-25 23:42:00,
2013-05-25 19:53:00,71.0,35.0,-100.00,West,275,5.0,12.0,27,0.00,,,0.00,181.000000,,2013-05-25 23:53:00,
2013-05-25 20:02:00,71.0,35.0,-100.00,West,275,5.0,12.0,27,0.00,,,0.00,181.000000,,2013-05-26 00:02:00,
2013-05-25 20:32:00,65.0,30.0,-100.00,NNW,344,3.0,9.0,27,0.00,,,0.00,97.000000,,2013-05-26 00:32:00,
2013-05-25 20:43:00,65.0,30.0,-100.00,NNW,344,3.0,9.0,27,0.00,,,0.00,97.000000,,2013-05-26 00:43:00,
2013-05-25 20:53:00,65.0,30.0,-100.00,NNW,344,3.0,9.0,27,0.00,,,0.00,97.000000,,2013-05-26 00:53:00,
2013-05-25 21:01:00,65.0,30.0,-100.00,NNW,344,3.0,9.0,27,0.00,,,0.00,97.000000,,2013-05-26 01:01:00,
2013-05-25 21:32:00,58.0,36.0,-100.00,NNW,345,2.0,6.0,44,0.00,,,0.00,9.000000,,2013-05-26 01:32:00,
2013-05-25 21:42:00,58.0,36.0,-100.00,NNW,345,2.0,6.0,44,0.00,,,0.00,9.000000,,2013-05-26 01:42:00,
2013-05-25 21:53:00,58.0,36.0,-100.00,NNW,345,2.0,6.0,44,0.00,,,0.00,9.000000,,2013-05-26 01:53:00,
2013-05-25 22:02:00,58.0,36.0,-100.00,NNW,345,2.0,6.0,44,0.00,,,0.00,9.000000,,2013-05-26 02:02:00,
2013-05-25 22:32:00,53.0,37.0,-100.00,North,353,2.0,5.0,54,0.00,,,0.00,0.000000,,2013-05-26 02:32:00,
2013-05-25 22:42:00,53.0,37.0,-100.00,North,353,2.0,5.0,54,0.00,,,0.00,0.000000,,2013-05-26 02:42:00,
2013-05-25 22:52:00,53.0,37.0,-100.00,North,353,2.0,5.0,54,0.00,,,0.00,0.000000,,2013-05-26 02:52:00,
2013-05-25 23:01:00,53.0,37.0,-100.00,North,353,2.0,5.0,54,0.00,,,0.00,0.000000,,2013-05-26 03:01:00,
2013-05-25 23:33:00,50.0,38.0,-100.00,NW,326,1.0,6.0,64,0.00,,,0.00,0.000000,,2013-05-26 03:33:00,
2013-05-25 23:43:00,50.0,38.0,-100.00,NW,326,1.0,6.0,64,0.00,,,0.00,0.000000,,2013-05-26 03:43:00,
2013-05-25 23:53:00,50.0,38.0,-100.00,NW,326,1.0,6.0,64,0.00,,,0.00,0.000000,,2013-05-26 03:53:00,